sensor_id;sensor_type;location;lat;lon;timestamp;pressure;altitude;pressure_sealevel;temperature;humidity
44001;BME280;29660;42.892;24.710;2023-03-25T00:03:50;96560.47;;;6.07;100.00
44001;BME280;29660;42.892;24.710;2023-03-25T00:09:14;96347.47;;;4.74;100.00
44001;BME280;29660;42.892;24.710;2023-03-25T00:14:36;96362.81;;;4.72;100.00
44001;BME280;29660;42.892;24.710;2023-03-25T00:19:58;96586.94;;;6.07;100.00
44001;BME280;29660;42.892;24.710;2023-03-25T00:25:23;96598.03;;;6.14;100.00
44001;BME280;29660;42.892;24.710;2023-03-25T00:30:45;96335.84;;;4.44;100.00
44001;BME280;29660;42.892;24.710;2023-03-25T00:36:08;96589.56;;;6.12;100.00
44001;BME280;29660;42.892;24.710;2023-03-25T00:41:32;96580.31;;;6.00;100.00
44001;BME280;29660;42.892;24.710;2023-03-25T00:46:56;96602.56;;;6.04;100.00
44001;BME280;29660;42.892;24.710;2023-03-25T00:52:18;96504.94;;;5.56;100.00
44001;BME280;29660;42.892;24.710;2023-03-25T00:57:43;96285.13;;;4.16;100.00
44001;BME280;29660;42.892;24.710;2023-03-25T01:03:25;96509.69;;;5.59;100.00
44001;BME280;29660;42.892;24.710;2023-03-25T01:08:51;96549.91;;;5.61;100.00
44001;BME280;29660;42.892;24.710;2023-03-25T01:14:19;96488.84;;;5.32;100.00
44001;BME280;29660;42.892;24.710;2023-03-25T01:19:41;96556.78;;;5.62;100.00
44001;BME280;29660;42.892;24.710;2023-03-25T01:25:04;96534.03;;;5.56;100.00
44001;BME280;29660;42.892;24.710;2023-03-25T01:30:26;96488.56;;;5.34;100.00
44001;BME280;29660;42.892;24.710;2023-03-25T01:35:49;96272.72;;;3.91;100.00
44001;BME280;29660;42.892;24.710;2023-03-25T01:41:11;96449.44;;;5.15;100.00
44001;BME280;29660;42.892;24.710;2023-03-25T01:46:34;96475.88;;;5.26;100.00
44001;BME280;29660;42.892;24.710;2023-03-25T01:52:02;96503.91;;;5.47;100.00
44001;BME280;29660;42.892;24.710;2023-03-25T01:57:26;96239.19;;;3.77;100.00
44001;BME280;29660;42.892;24.710;2023-03-25T02:02:53;96494.41;;;5.31;100.00
44001;BME280;29660;42.892;24.710;2023-03-25T02:08:20;96511.81;;;5.42;100.00
44001;BME280;29660;42.892;24.710;2023-03-25T02:13:44;96506.28;;;5.38;100.00
44001;BME280;29660;42.892;24.710;2023-03-25T02:47:28;96488.03;;;5.16;100.00
44001;BME280;29660;42.892;24.710;2023-03-25T02:53:01;96469.00;;;5.04;100.00
44001;BME280;29660;42.892;24.710;2023-03-25T02:58:27;96201.66;;;3.29;100.00
44001;BME280;29660;42.892;24.710;2023-03-25T03:03:51;96509.44;;;5.10;100.00
44001;BME280;29660;42.892;24.710;2023-03-25T03:09:26;96497.56;;;5.07;100.00
44001;BME280;29660;42.892;24.710;2023-03-25T03:15:05;96483.53;;;5.02;100.00
44001;BME280;29660;42.892;24.710;2023-03-25T03:26:36;96234.63;;;3.41;100.00
44001;BME280;29660;42.892;24.710;2023-03-25T03:32:09;96446.81;;;4.80;100.00
44001;BME280;29660;42.892;24.710;2023-03-25T03:37:40;96485.38;;;4.81;100.00
44001;BME280;29660;42.892;24.710;2023-03-25T03:43:14;96457.59;;;4.63;100.00
44001;BME280;29660;42.892;24.710;2023-03-25T03:48:44;96478.47;;;4.70;100.00
44001;BME280;29660;42.892;24.710;2023-03-25T03:54:22;96176.19;;;2.77;100.00
44001;BME280;29660;42.892;24.710;2023-03-25T04:00:04;96483.25;;;4.73;100.00
44001;BME280;29660;42.892;24.710;2023-03-25T04:05:35;96434.56;;;4.38;100.00
44001;BME280;29660;42.892;24.710;2023-03-25T04:11:04;96428.75;;;4.26;100.00
44001;BME280;29660;42.892;24.710;2023-03-25T04:16:30;96441.16;;;4.35;100.00
44001;BME280;29660;42.892;24.710;2023-03-25T04:21:56;96217.31;;;2.88;100.00
44001;BME280;29660;42.892;24.710;2023-03-25T04:27:18;96301.56;;;3.40;100.00
44001;BME280;29660;42.892;24.710;2023-03-25T04:32:40;96214.66;;;2.83;100.00
44001;BME280;29660;42.892;24.710;2023-03-25T04:38:02;96365.53;;;3.83;100.00
44001;BME280;29660;42.892;24.710;2023-03-25T04:43:26;96207.50;;;2.68;100.00
44001;BME280;29660;42.892;24.710;2023-03-25T04:48:49;96251.50;;;2.83;100.00
44001;BME280;29660;42.892;24.710;2023-03-25T04:54:11;96549.00;;;4.69;100.00
44001;BME280;29660;42.892;24.710;2023-03-25T04:59:33;96205.72;;;2.84;100.00
44001;BME280;29660;42.892;24.710;2023-03-25T05:04:56;96521.03;;;4.93;100.00
44001;BME280;29660;42.892;24.710;2023-03-25T05:10:24;96515.78;;;5.04;100.00
44001;BME280;29660;42.892;24.710;2023-03-25T05:15:47;96419.28;;;4.55;100.00
44001;BME280;29660;42.892;24.710;2023-03-25T05:21:09;96534.03;;;5.26;100.00
44001;BME280;29660;42.892;24.710;2023-03-25T05:26:32;96227.03;;;3.50;100.00
44001;BME280;29660;42.892;24.710;2023-03-25T05:31:55;96102.78;;;2.95;100.00
44001;BME280;29660;42.892;24.710;2023-03-25T05:37:17;96429.34;;;5.30;100.00
44001;BME280;29660;42.892;24.710;2023-03-25T05:42:40;96238.69;;;4.31;100.00
44001;BME280;29660;42.892;24.710;2023-03-25T05:48:07;96497.44;;;6.14;100.00
44001;BME280;29660;42.892;24.710;2023-03-25T05:53:29;96279.75;;;5.13;100.00
44001;BME280;29660;42.892;24.710;2023-03-25T05:58:52;96524.91;;;6.88;100.00
44001;BME280;29660;42.892;24.710;2023-03-25T06:04:14;96474.75;;;6.97;100.00
44001;BME280;29660;42.892;24.710;2023-03-25T06:09:37;96517.28;;;7.50;100.00
44001;BME280;29660;42.892;24.710;2023-03-25T06:15:08;96513.03;;;7.83;99.56
44001;BME280;29660;42.892;24.710;2023-03-25T06:20:30;96475.56;;;8.09;98.92
44001;BME280;29660;42.892;24.710;2023-03-25T06:25:54;96322.09;;;7.44;97.01
44001;BME280;29660;42.892;24.710;2023-03-25T06:31:19;96496.34;;;8.93;95.41
44001;BME280;29660;42.892;24.710;2023-03-25T06:36:41;96486.03;;;9.24;92.97
44001;BME280;29660;42.892;24.710;2023-03-25T06:42:04;96488.50;;;9.67;90.90
44001;BME280;29660;42.892;24.710;2023-03-25T06:47:59;96179.72;;;8.10;89.27
44001;BME280;29660;42.892;24.710;2023-03-25T06:53:21;96328.09;;;9.47;86.90
44001;BME280;29660;42.892;24.710;2023-03-25T06:58:44;96215.34;;;9.29;79.19
44001;BME280;29660;42.892;24.710;2023-03-25T07:04:06;96491.28;;;11.44;81.32
44001;BME280;29660;42.892;24.710;2023-03-25T07:09:28;96482.38;;;11.80;77.94
44001;BME280;29660;42.892;24.710;2023-03-25T07:14:54;96243.47;;;10.75;75.19
44001;BME280;29660;42.892;24.710;2023-03-25T07:20:18;96486.47;;;12.74;74.88
44001;BME280;29660;42.892;24.710;2023-03-25T07:25:40;96432.50;;;12.81;70.04
44001;BME280;29660;42.892;24.710;2023-03-25T07:31:06;96273.44;;;12.26;71.09
44001;BME280;29660;42.892;24.710;2023-03-25T07:36:28;96410.97;;;13.68;67.72
44001;BME280;29660;42.892;24.710;2023-03-25T07:41:51;96433.00;;;14.41;58.74
44001;BME280;29660;42.892;24.710;2023-03-25T07:47:22;96225.16;;;14.06;53.00
44001;BME280;29660;42.892;24.710;2023-03-25T07:52:44;96300.66;;;15.37;47.93
44001;BME280;29660;42.892;24.710;2023-03-25T07:58:06;96476.25;;;16.97;46.45
44001;BME280;29660;42.892;24.710;2023-03-25T08:03:29;96403.97;;;16.99;46.32
44001;BME280;29660;42.892;24.710;2023-03-25T08:08:51;96229.94;;;16.38;41.42
44001;BME280;29660;42.892;24.710;2023-03-25T08:14:13;96460.72;;;18.22;41.70
44001;BME280;29660;42.892;24.710;2023-03-25T08:19:35;96199.50;;;16.93;41.46
44001;BME280;29660;42.892;24.710;2023-03-25T08:24:58;96448.78;;;18.89;40.80
44001;BME280;29660;42.892;24.710;2023-03-25T08:30:21;96377.13;;;18.76;39.66
44001;BME280;29660;42.892;24.710;2023-03-25T08:35:43;96438.91;;;19.36;40.00
44001;BME280;29660;42.892;24.710;2023-03-25T08:41:05;96305.88;;;18.84;38.94
44001;BME280;29660;42.892;24.710;2023-03-25T08:46:27;96361.41;;;19.44;37.16
44001;BME280;29660;42.892;24.710;2023-03-25T08:51:49;96153.50;;;18.24;36.94
44001;BME280;29660;42.892;24.710;2023-03-25T08:57:11;96393.22;;;19.96;37.33
44001;BME280;29660;42.892;24.710;2023-03-25T09:02:33;96432.63;;;20.43;37.29
44001;BME280;29660;42.892;24.710;2023-03-25T09:07:56;96166.09;;;18.81;36.53
44001;BME280;29660;42.892;24.710;2023-03-25T09:13:18;96158.06;;;19.08;37.35
44001;BME280;29660;42.892;24.710;2023-03-25T09:18:40;96328.53;;;20.41;35.26
44001;BME280;29660;42.892;24.710;2023-03-25T09:24:02;96202.06;;;19.84;36.29
44001;BME280;29660;42.892;24.710;2023-03-25T09:29:24;96395.31;;;21.16;34.67
44001;BME280;29660;42.892;24.710;2023-03-25T09:34:46;96431.94;;;21.33;35.63
44001;BME280;29660;42.892;24.710;2023-03-25T09:40:13;96404.19;;;21.47;34.14
44001;BME280;29660;42.892;24.710;2023-03-25T09:45:36;96410.00;;;21.49;34.81
44001;BME280;29660;42.892;24.710;2023-03-25T09:51:08;96393.53;;;21.68;34.33
44001;BME280;29660;42.892;24.710;2023-03-25T09:56:34;96350.50;;;21.67;33.77
44001;BME280;29660;42.892;24.710;2023-03-25T10:02:34;96396.53;;;21.97;34.37
44001;BME280;29660;42.892;24.710;2023-03-25T10:13:56;96114.69;;;20.14;35.50
44001;BME280;29660;42.892;24.710;2023-03-25T10:25:00;96173.94;;;20.53;34.36
44001;BME280;29660;42.892;24.710;2023-03-25T10:30:25;96296.06;;;21.49;34.16
44001;BME280;29660;42.892;24.710;2023-03-25T10:35:48;96145.50;;;20.77;33.90
44001;BME280;29660;42.892;24.710;2023-03-25T10:41:19;96223.88;;;21.37;34.11
44001;BME280;29660;42.892;24.710;2023-03-25T10:52:09;96333.84;;;22.20;32.90
44001;BME280;29660;42.892;24.710;2023-03-25T10:57:31;96173.78;;;21.24;32.59
44001;BME280;29660;42.892;24.710;2023-03-25T11:02:53;96294.72;;;21.73;32.97
44001;BME280;29660;42.892;24.710;2023-03-25T11:08:18;96334.47;;;21.99;32.69
44001;BME280;29660;42.892;24.710;2023-03-25T11:13:45;96119.91;;;20.71;32.77
44001;BME280;29660;42.892;24.710;2023-03-25T11:19:24;96270.22;;;21.62;33.16
44001;BME280;29660;42.892;24.710;2023-03-25T11:24:51;96267.72;;;21.02;33.66
44001;BME280;29660;42.892;24.710;2023-03-25T11:30:20;96096.47;;;19.77;33.61
44001;BME280;29660;42.892;24.710;2023-03-25T11:35:43;96273.09;;;21.36;33.65
44001;BME280;29660;42.892;24.710;2023-03-25T11:41:07;96084.88;;;20.10;32.85
44001;BME280;29660;42.892;24.710;2023-03-25T11:46:31;96060.03;;;20.01;32.68
44001;BME280;29660;42.892;24.710;2023-03-25T11:52:12;96303.88;;;21.54;33.02
44001;BME280;29660;42.892;24.710;2023-03-25T11:57:38;96271.41;;;21.24;33.37
44001;BME280;29660;42.892;24.710;2023-03-25T12:08:41;96212.50;;;21.21;32.66
44001;BME280;29660;42.892;24.710;2023-03-25T12:32:01;96293.34;;;22.00;32.14
44001;BME280;29660;42.892;24.710;2023-03-25T13:00:24;96251.53;;;21.53;31.91
44001;BME280;29660;42.892;24.710;2023-03-25T13:11:45;96002.50;;;20.11;32.38
44001;BME280;29660;42.892;24.710;2023-03-25T13:17:16;96236.56;;;21.74;32.30
44001;BME280;29660;42.892;24.710;2023-03-25T13:22:46;95994.66;;;19.99;32.94
44001;BME280;29660;42.892;24.710;2023-03-25T13:28:16;95983.25;;;19.79;33.91
44001;BME280;29660;42.892;24.710;2023-03-25T13:33:45;96152.59;;;20.89;33.74
44001;BME280;29660;42.892;24.710;2023-03-25T13:39:26;95971.22;;;19.73;34.08
44001;BME280;29660;42.892;24.710;2023-03-25T13:44:53;95977.28;;;19.63;34.63
44001;BME280;29660;42.892;24.710;2023-03-25T13:50:26;95983.28;;;19.49;35.04
44001;BME280;29660;42.892;24.710;2023-03-25T14:12:51;96231.41;;;20.09;35.74
44001;BME280;29660;42.892;24.710;2023-03-25T14:18:18;96206.25;;;19.78;36.56
44001;BME280;29660;42.892;24.710;2023-03-25T14:23:40;95980.91;;;18.11;37.78
44001;BME280;29660;42.892;24.710;2023-03-25T14:29:18;96234.09;;;19.56;38.02
44001;BME280;29660;42.892;24.710;2023-03-25T14:34:42;96234.56;;;19.35;38.78
44001;BME280;29660;42.892;24.710;2023-03-25T14:51:41;96289.19;;;19.02;40.28
44001;BME280;29660;42.892;24.710;2023-03-25T14:57:08;96295.91;;;18.88;41.67
44001;BME280;29660;42.892;24.710;2023-03-25T15:02:36;96258.38;;;18.64;42.10
44001;BME280;29660;42.892;24.710;2023-03-25T15:08:13;96197.44;;;18.05;43.46
44001;BME280;29660;42.892;24.710;2023-03-25T15:13:43;95985.84;;;16.38;44.76
44001;BME280;29660;42.892;24.710;2023-03-25T15:19:11;96095.19;;;16.90;46.91
44001;BME280;29660;42.892;24.710;2023-03-25T15:24:35;96208.78;;;17.43;48.84
44001;BME280;29660;42.892;24.710;2023-03-25T15:30:33;96052.22;;;16.03;50.86
44001;BME280;29660;42.892;24.710;2023-03-25T15:53:29;96338.22;;;17.15;54.86
44001;BME280;29660;42.892;24.710;2023-03-25T16:05:17;96214.28;;;16.00;62.19
44001;BME280;29660;42.892;24.710;2023-03-25T16:10:40;96265.94;;;16.05;69.08
